Time;durP1;ratioP1;P1;durP2;ratioP2;P2;SDS_P1;SDS_P2;PMS_P1;PMS_P2;Temp;Humidity;BMP_temperature;BMP_pressure;BME280_temperature;BME280_humidity;BME280_pressure;Samples;Min_cycle;Max_cycle;Signal;HPM_P1;HPM_P2
2022/12/25 00:11:19;;;;;;;73.55;47.70;;;11.90;1.00;;;;;;5022519;28;20036;-61
2022/12/25 00:13:46;;;;;;;69.05;49.15;;;11.90;1.00;;;;;;5030128;28;20374;-61
2022/12/25 00:16:16;;;;;;;76.07;48.72;;;12.00;1.00;;;;;;5027504;28;20040;-60
2022/12/25 00:18:42;;;;;;;71.63;47.58;;;12.10;1.00;;;;;;5032940;28;20732;-61
2022/12/25 00:21:09;;;;;;;69.10;47.45;;;12.10;1.00;;;;;;5032528;28;20041;-60
2022/12/25 00:23:35;;;;;;;69.63;47.17;;;12.20;1.00;;;;;;5034531;28;20087;-60
2022/12/25 00:26:07;;;;;;;72.18;48.58;;;12.20;1.00;;;;;;5027505;28;20066;-60
2022/12/25 00:28:34;;;;;;;73.90;47.60;;;12.00;1.00;;;;;;5033195;28;20096;-61
2022/12/25 00:31:07;;;;;;;69.70;48.85;;;12.10;1.00;;;;;;5027323;28;20045;-61
2022/12/25 00:33:35;;;;;;;72.85;46.53;;;12.10;1.00;;;;;;5034287;28;20037;-60
2022/12/25 00:36:01;;;;;;;69.63;46.63;;;12.10;1.00;;;;;;5031593;28;20037;-60
2022/12/25 00:38:27;;;;;;;68.68;46.83;;;12.10;1.00;;;;;;5034145;28;20487;-60
2022/12/25 00:41:05;;;;;;;70.93;46.20;;;12.00;1.00;;;;;;5034176;28;20119;-60
2022/12/25 00:43:33;;;;;;;67.80;46.08;;;12.10;1.00;;;;;;5034284;28;20112;-61
2022/12/25 00:46:02;;;;;;;69.82;47.47;;;12.10;1.00;;;;;;5032619;28;20189;-61
2022/12/25 00:48:30;;;;;;;70.45;46.05;;;12.00;1.00;;;;;;5033517;28;20056;-60
2022/12/25 00:50:57;;;;;;;72.38;46.92;;;12.10;1.00;;;;;;5026232;28;20049;-60
2022/12/25 00:53:24;;;;;;;67.32;45.95;;;12.20;1.00;;;;;;5034656;28;20017;-61
2022/12/25 00:55:52;;;;;;;70.47;45.17;;;12.20;1.00;;;;;;5019426;28;20160;-61
2022/12/25 00:58:18;;;;;;;69.47;47.45;;;12.00;1.00;;;;;;5034579;28;20101;-60
2022/12/25 01:00:44;;;;;;;70.82;44.72;;;12.10;1.00;;;;;;5028448;28;20044;-61
2022/12/25 01:03:09;;;;;;;66.97;45.40;;;12.10;1.00;;;;;;5031145;28;20034;-60
2022/12/25 01:05:35;;;;;;;69.38;45.72;;;12.20;1.00;;;;;;5031284;28;20033;-60
2022/12/25 01:08:01;;;;;;;68.85;45.42;;;12.20;1.00;;;;;;5029850;28;20096;-60
2022/12/25 01:10:26;;;;;;;68.68;46.03;;;12.20;1.00;;;;;;5030844;28;20521;-60
2022/12/25 01:12:52;;;;;;;71.32;46.30;;;12.20;1.00;;;;;;5027892;28;20026;-60
2022/12/25 01:15:18;;;;;;;73.10;47.92;;;12.30;1.00;;;;;;5034494;28;20037;-60
2022/12/25 01:17:44;;;;;;;73.43;48.88;;;12.20;1.00;;;;;;5027408;28;20483;-61
2022/12/25 01:20:11;;;;;;;69.95;45.15;;;12.20;1.00;;;;;;5031352;28;20343;-60
2022/12/25 01:22:37;;;;;;;74.75;48.72;;;12.20;1.00;;;;;;5032083;28;20061;-61
2022/12/25 01:25:04;;;;;;;69.63;46.05;;;12.20;1.00;;;;;;5033917;28;20056;-61
2022/12/25 01:27:31;;;;;;;70.63;45.25;;;12.20;1.00;;;;;;5033204;28;20546;-60
2022/12/25 01:29:56;;;;;;;70.25;46.05;;;12.10;1.00;;;;;;5031547;28;20025;-60
2022/12/25 01:32:22;;;;;;;71.47;46.72;;;12.20;1.00;;;;;;5031748;28;20356;-60
2022/12/25 01:38:16;;;;;;;70.22;46.53;;;12.20;1.00;;;;;;5019036;28;20132;-60
2022/12/25 01:40:42;;;;;;;76.95;48.55;;;12.30;1.00;;;;;;5026010;28;20037;-60
2022/12/25 01:43:29;;;;;;;69.97;47.47;;;12.30;1.00;;;;;;5032960;28;20017;-60
2022/12/25 01:45:54;;;;;;;71.53;44.55;;;12.30;1.00;;;;;;5030785;28;20081;-60
2022/12/25 01:48:40;;;;;;;72.35;46.60;;;12.30;1.00;;;;;;5032784;28;20102;-60
2022/12/25 01:51:48;;;;;;;74.32;47.88;;;12.30;1.00;;;;;;5029560;28;20022;-61
2022/12/25 01:54:27;;;;;;;68.82;45.63;;;12.30;1.00;;;;;;5021102;28;20076;-60
2022/12/25 01:56:55;;;;;;;74.32;47.65;;;12.30;1.00;;;;;;5027853;28;20045;-60
2022/12/25 01:59:24;;;;;;;72.05;45.88;;;12.20;1.00;;;;;;5032214;28;20495;-61
2022/12/25 02:01:50;;;;;;;77.55;47.53;;;12.20;1.00;;;;;;5031036;28;20082;-61
2022/12/25 02:04:37;;;;;;;81.20;51.50;;;12.00;1.00;;;;;;5032619;28;20072;-61
2022/12/25 02:07:12;;;;;;;77.70;47.47;;;11.90;1.00;;;;;;5031467;28;20475;-60
2022/12/25 02:09:41;;;;;;;78.97;49.05;;;12.00;1.00;;;;;;5032541;28;20029;-60
2022/12/25 02:12:12;;;;;;;78.03;48.70;;;12.10;1.00;;;;;;5031905;28;20108;-61
2022/12/25 02:14:37;;;;;;;74.55;48.22;;;12.20;1.00;;;;;;5031308;28;20030;-60
2022/12/25 02:17:25;;;;;;;74.15;47.45;;;12.20;1.00;;;;;;5031520;28;20036;-60
2022/12/25 02:20:15;;;;;;;75.80;50.40;;;12.10;1.00;;;;;;5031481;28;20472;-61
2022/12/25 02:23:00;;;;;;;72.32;47.42;;;12.10;1.00;;;;;;5017789;28;20420;-60
2022/12/25 02:25:31;;;;;;;72.70;47.23;;;12.10;1.00;;;;;;5029709;28;20515;-60
2022/12/25 02:28:06;;;;;;;79.03;49.95;;;12.10;1.00;;;;;;4979037;28;1523700;-60
2022/12/25 02:30:39;;;;;;;78.22;48.38;;;12.00;1.00;;;;;;5018208;28;20029;-60
2022/12/25 02:36:11;;;;;;;78.45;48.15;;;12.10;1.00;;;;;;5018069;28;20051;-60
2022/12/25 02:39:56;;;;;;;75.10;49.33;;;12.20;1.00;;;;;;5032159;28;20038;-60
2022/12/25 02:41:38;;;;;;;74.25;47.63;;;12.10;1.00;;;;;;5018099;28;20049;-60
2022/12/25 03:06:42;;;;;;;78.28;50.00;;;12.00;1.00;;;;;;5027321;28;20091;-60
2022/12/25 03:12:15;;;;;;;79.07;48.67;;;12.10;1.00;;;;;;5032504;28;20131;-61
2022/12/25 03:17:25;;;;;;;76.47;49.05;;;12.20;1.00;;;;;;5032488;28;20044;-60
2022/12/25 03:28:05;;;;;;;;;;;12.00;1.00;;;;;;5032193;28;20059;-60
2022/12/25 03:35:21;;;;;;;75.25;49.20;;;12.10;1.00;;;;;;5032189;28;20139;-61
2022/12/25 04:37:44;;;;;;;69.80;43.97;;;12.20;1.00;;;;;;5040346;28;20040;-60
2022/12/25 04:40:09;;;;;;;69.72;44.40;;;12.10;1.00;;;;;;5032515;28;20017;-61
2022/12/25 04:42:35;;;;;;;73.22;46.42;;;12.10;1.00;;;;;;5025954;28;20073;-61
2022/12/25 04:45:01;;;;;;;73.30;45.42;;;12.10;1.00;;;;;;5030905;28;20030;-60
2022/12/25 04:47:26;;;;;;;69.25;44.65;;;12.10;1.00;;;;;;5024777;28;20029;-61
2022/12/25 04:49:52;;;;;;;75.90;45.88;;;12.10;1.00;;;;;;5028295;28;20034;-61
2022/12/25 04:52:18;;;;;;;67.25;44.40;;;12.00;1.00;;;;;;5030841;28;20116;-60
2022/12/25 04:54:43;;;;;;;70.97;43.67;;;12.10;1.00;;;;;;5029872;28;20065;-61
2022/12/25 04:57:09;;;;;;;73.45;45.15;;;12.10;1.00;;;;;;5029460;28;20526;-61
2022/12/25 04:59:35;;;;;;;70.00;42.58;;;12.10;1.00;;;;;;5031632;28;20021;-60
2022/12/25 05:02:02;;;;;;;69.90;44.10;;;12.10;1.00;;;;;;5034922;28;20029;-61
2022/12/25 05:04:28;;;;;;;68.80;43.67;;;12.10;1.00;;;;;;5033227;28;20031;-60
2022/12/25 05:06:54;;;;;;;74.28;44.72;;;12.10;1.00;;;;;;5034751;28;20025;-61
2022/12/25 05:09:20;;;;;;;72.18;43.78;;;12.10;1.00;;;;;;5034407;28;20021;-61
2022/12/25 05:11:45;;;;;;;71.15;43.90;;;12.10;1.00;;;;;;5033059;28;20411;-60
2022/12/25 05:14:11;;;;;;;75.47;44.72;;;12.10;1.00;;;;;;5033730;28;20021;-60
2022/12/25 05:16:37;;;;;;;67.97;43.50;;;12.10;1.00;;;;;;5034444;28;20109;-60
2022/12/25 05:19:03;;;;;;;68.97;43.33;;;12.10;1.00;;;;;;5032964;28;20029;-60
2022/12/25 05:21:29;;;;;;;71.32;43.85;;;12.00;1.00;;;;;;5034542;28;20035;-61
2022/12/25 05:23:54;;;;;;;72.47;43.95;;;12.00;1.00;;;;;;5032213;28;20100;-60
2022/12/25 05:26:24;;;;;;;67.85;43.17;;;12.10;1.00;;;;;;5034287;28;20045;-60
2022/12/25 05:28:54;;;;;;;71.15;44.15;;;12.10;1.00;;;;;;5032956;28;20108;-60
2022/12/25 05:31:20;;;;;;;74.03;43.70;;;12.00;1.00;;;;;;5033324;28;20026;-61
2022/12/25 05:33:50;;;;;;;71.72;44.85;;;12.10;1.00;;;;;;5033144;28;20120;-60
2022/12/25 05:36:16;;;;;;;70.88;43.25;;;12.00;1.00;;;;;;5031733;28;20535;-60
2022/12/25 05:38:42;;;;;;;68.97;43.67;;;12.00;1.00;;;;;;5046271;28;20029;-60
2022/12/25 05:41:07;;;;;;;70.88;45.72;;;12.00;1.00;;;;;;5026929;28;20037;-61
2022/12/25 05:43:33;;;;;;;71.25;45.05;;;12.10;1.00;;;;;;5032465;28;20419;-60
2022/12/25 05:46:06;;;;;;;69.40;44.33;;;12.10;1.00;;;;;;5033838;28;20037;-61
2022/12/25 05:48:34;;;;;;;72.88;45.85;;;12.10;1.00;;;;;;5033543;28;20025;-61
2022/12/25 05:51:09;;;;;;;72.95;45.47;;;12.10;1.00;;;;;;5029782;28;20495;-61
2022/12/25 05:53:35;;;;;;;70.70;44.83;;;12.00;1.00;;;;;;5033764;28;20021;-61
2022/12/25 05:56:03;;;;;;;73.85;43.90;;;12.00;1.00;;;;;;5030802;28;20498;-61
2022/12/25 05:58:30;;;;;;;76.70;46.38;;;12.00;1.00;;;;;;5033549;28;20160;-60
2022/12/25 06:00:56;;;;;;;71.47;46.15;;;12.00;1.00;;;;;;5032245;28;20041;-61
2022/12/25 06:03:22;;;;;;;75.55;46.63;;;12.00;1.00;;;;;;5033856;28;20026;-61
2022/12/25 06:05:48;;;;;;;76.63;48.95;;;12.00;1.00;;;;;;5031990;28;20469;-60
2022/12/25 06:08:13;;;;;;;72.05;45.95;;;11.90;1.00;;;;;;5033587;28;20017;-60
2022/12/25 06:10:39;;;;;;;73.82;45.75;;;12.00;1.00;;;;;;5032344;28;20033;-61
2022/12/25 06:13:05;;;;;;;76.15;47.88;;;12.10;1.00;;;;;;5017097;28;20022;-60
2022/12/25 06:15:30;;;;;;;72.07;48.97;;;12.10;1.00;;;;;;5029615;28;20044;-60
2022/12/25 06:17:59;;;;;;;75.32;47.90;;;12.10;1.00;;;;;;5021708;28;20385;-61
2022/12/25 06:20:24;;;;;;;75.05;47.47;;;12.00;1.00;;;;;;5023694;28;20034;-61
2022/12/25 06:22:50;;;;;;;79.47;49.33;;;12.00;1.00;;;;;;5022417;28;20049;-61
2022/12/25 06:25:16;;;;;;;73.55;47.22;;;12.00;1.00;;;;;;5031283;28;20033;-61
2022/12/25 06:27:41;;;;;;;80.07;48.78;;;12.00;1.00;;;;;;5032794;28;20380;-61
2022/12/25 06:30:08;;;;;;;75.28;47.17;;;12.10;1.00;;;;;;5027993;28;20523;-60
2022/12/25 06:32:33;;;;;;;79.72;49.58;;;12.00;1.00;;;;;;5032271;28;20106;-61
2022/12/25 06:34:59;;;;;;;77.93;48.33;;;11.80;1.00;;;;;;5027886;28;20109;-61
2022/12/25 06:37:25;;;;;;;81.55;49.38;;;11.90;1.00;;;;;;5039143;28;20040;-60
2022/12/25 06:39:50;;;;;;;74.13;47.55;;;12.00;1.00;;;;;;5037961;28;20459;-60
2022/12/25 06:42:16;;;;;;;77.57;47.95;;;11.90;1.00;;;;;;5031702;28;20479;-60
2022/12/25 06:44:42;;;;;;;83.03;50.30;;;11.90;1.00;;;;;;5029967;28;20025;-60
2022/12/25 06:47:07;;;;;;;75.13;49.42;;;11.90;1.00;;;;;;5032847;28;20495;-61
2022/12/25 06:49:33;;;;;;;76.15;48.13;;;11.90;1.00;;;;;;5032968;28;20026;-61
2022/12/25 06:51:59;;;;;;;84.20;50.65;;;11.90;1.00;;;;;;5032718;28;20656;-61
2022/12/25 06:54:24;;;;;;;80.30;48.60;;;11.90;1.00;;;;;;5032734;28;20025;-61
2022/12/25 06:56:50;;;;;;;84.38;51.60;;;11.90;1.00;;;;;;5032691;28;20376;-61
2022/12/25 06:59:16;;;;;;;83.28;50.80;;;11.90;1.00;;;;;;5031031;28;20026;-60
2022/12/25 07:01:51;;;;;;;82.60;49.92;;;11.80;1.00;;;;;;5032601;28;20029;-60
2022/12/25 07:04:22;;;;;;;80.07;49.53;;;11.80;1.00;;;;;;5032342;28;20104;-60
2022/12/25 07:06:48;;;;;;;77.65;48.70;;;11.90;1.00;;;;;;5025642;28;20467;-60
2022/12/25 07:09:13;;;;;;;81.32;48.67;;;11.90;1.00;;;;;;5031976;28;20104;-61
2022/12/25 07:11:39;;;;;;;82.70;49.97;;;11.90;1.00;;;;;;5024746;28;20061;-60
2022/12/25 07:14:05;;;;;;;78.13;49.50;;;11.80;1.00;;;;;;5030751;28;20032;-60
2022/12/25 07:16:30;;;;;;;78.97;50.50;;;11.90;1.00;;;;;;5041276;28;20090;-60
2022/12/25 07:18:59;;;;;;;84.60;50.72;;;11.90;1.00;;;;;;5031076;28;20475;-60
2022/12/25 07:28:09;;;;;;;80.60;48.28;;;11.90;1.00;;;;;;4996147;28;20558;-60
2022/12/25 07:30:36;;;;;;;76.00;47.33;;;11.90;1.00;;;;;;5019067;28;20041;-60
2022/12/25 07:33:02;;;;;;;83.20;49.28;;;11.90;1.00;;;;;;5032140;28;20029;-60
2022/12/25 07:35:27;;;;;;;82.60;49.67;;;11.90;1.00;;;;;;5045876;28;20448;-61
2022/12/25 07:37:53;;;;;;;83.70;49.95;;;11.90;1.00;;;;;;5027630;28;20026;-60
2022/12/25 07:40:18;;;;;;;83.57;50.92;;;11.90;1.00;;;;;;5030189;28;20361;-60
2022/12/25 07:42:44;;;;;;;81.18;48.47;;;12.00;1.00;;;;;;5030654;28;20021;-60
2022/12/25 07:45:10;;;;;;;83.88;51.78;;;11.90;1.00;;;;;;5025303;28;20033;-60
2022/12/25 07:47:35;;;;;;;78.25;49.22;;;11.90;1.00;;;;;;5030497;28;20391;-60
2022/12/25 07:50:01;;;;;;;81.22;48.53;;;11.90;1.00;;;;;;5027672;28;20026;-60
2022/12/25 07:52:27;;;;;;;76.88;48.80;;;12.00;1.00;;;;;;5042463;28;20025;-60
2022/12/25 07:54:52;;;;;;;79.05;48.75;;;12.00;1.00;;;;;;5029911;28;20478;-60
2022/12/25 07:57:18;;;;;;;77.45;49.22;;;12.00;1.00;;;;;;5031766;28;20030;-60
2022/12/25 07:59:44;;;;;;;80.85;49.08;;;12.00;1.00;;;;;;5023895;28;20014;-61
2022/12/25 08:02:10;;;;;;;79.32;48.38;;;12.00;1.00;;;;;;5031616;28;20068;-61
2022/12/25 08:11:20;;;;;;;85.28;50.65;;;12.00;1.00;;;;;;5017863;28;20037;-60
2022/12/25 08:13:46;;;;;;;81.45;50.15;;;12.00;1.00;;;;;;5022222;28;20029;-60
2022/12/25 08:16:11;;;;;;;80.35;49.60;;;11.90;1.00;;;;;;5030846;28;20038;-60
2022/12/25 08:18:38;;;;;;;78.18;49.78;;;12.00;1.00;;;;;;5031550;28;20022;-60
2022/12/25 08:21:07;;;;;;;83.20;51.15;;;12.00;1.00;;;;;;5029608;28;20495;-60
2022/12/25 08:23:34;;;;;;;79.28;49.00;;;12.10;1.00;;;;;;5017781;28;20025;-60
2022/12/25 08:26:00;;;;;;;78.57;49.28;;;12.10;1.00;;;;;;5042446;28;20071;-61
2022/12/25 08:28:28;;;;;;;77.35;48.40;;;12.00;1.00;;;;;;5033685;28;20049;-61
2022/12/25 08:30:53;;;;;;;78.03;48.03;;;12.10;1.00;;;;;;5031279;28;20499;-60
2022/12/25 08:33:19;;;;;;;79.38;51.10;;;12.10;1.00;;;;;;5031287;28;20071;-61
2022/12/25 08:35:45;;;;;;;79.72;48.50;;;12.00;1.00;;;;;;5030403;28;20041;-61
2022/12/25 08:38:10;;;;;;;76.78;48.15;;;12.00;1.00;;;;;;5034647;28;20030;-60
2022/12/25 08:40:36;;;;;;;80.30;50.05;;;12.00;1.00;;;;;;5033699;28;20477;-60
2022/12/25 08:43:03;;;;;;;78.43;49.08;;;12.00;1.00;;;;;;5035075;28;20083;-60
2022/12/25 08:45:29;;;;;;;77.20;48.92;;;12.10;1.00;;;;;;5035215;28;20055;-60
2022/12/25 08:47:55;;;;;;;74.82;47.75;;;12.10;1.00;;;;;;5026192;28;20036;-60
2022/12/25 08:50:22;;;;;;;71.00;45.63;;;12.10;1.00;;;;;;5033493;28;20112;-60
2022/12/25 08:52:48;;;;;;;73.90;46.75;;;12.20;1.00;;;;;;5033523;28;20497;-61
2022/12/25 08:55:14;;;;;;;77.13;47.97;;;12.20;1.00;;;;;;5033352;28;20037;-60
2022/12/25 08:57:40;;;;;;;74.85;45.95;;;12.20;1.00;;;;;;5022182;28;20364;-60
2022/12/25 09:00:06;;;;;;;77.57;46.65;;;12.20;1.00;;;;;;5034487;28;20038;-60
2022/12/25 09:02:32;;;;;;;74.07;46.45;;;12.20;1.00;;;;;;5035464;28;20033;-60
2022/12/25 09:04:58;;;;;;;79.38;49.70;;;12.20;1.00;;;;;;5031505;28;20083;-60
2022/12/25 09:07:23;;;;;;;77.88;48.67;;;12.30;1.00;;;;;;5034875;28;20108;-60
2022/12/25 09:09:49;;;;;;;75.60;46.78;;;12.30;1.00;;;;;;5034376;28;20068;-60
2022/12/25 09:12:15;;;;;;;76.93;48.17;;;12.30;1.00;;;;;;5033145;28;20036;-60
2022/12/25 09:14:40;;;;;;;76.15;48.17;;;12.30;1.00;;;;;;5034527;28;20137;-60
2022/12/25 09:17:06;;;;;;;77.88;46.63;;;12.40;1.00;;;;;;5034421;28;20041;-60
2022/12/25 09:19:32;;;;;;;78.70;50.38;;;12.40;1.00;;;;;;5026803;28;20491;-60
2022/12/25 09:21:57;;;;;;;73.68;47.17;;;12.40;1.00;;;;;;5034560;28;20029;-60
2022/12/25 09:24:23;;;;;;;82.28;49.03;;;12.40;1.00;;;;;;5030866;28;20021;-60
2022/12/25 09:30:11;;;;;;;72.88;47.13;;;12.40;1.00;;;;;;5024601;28;20057;-60
2022/12/25 09:32:39;;;;;;;77.25;48.42;;;12.40;1.00;;;;;;5032977;28;20447;-60
2022/12/25 09:35:06;;;;;;;78.10;48.92;;;12.50;1.00;;;;;;5034047;28;20017;-60
2022/12/25 09:37:31;;;;;;;77.88;48.10;;;12.50;1.00;;;;;;5034542;28;20035;-60
2022/12/25 09:39:57;;;;;;;80.70;51.58;;;12.50;1.00;;;;;;5033760;28;20074;-60
2022/12/25 09:42:27;;;;;;;77.20;48.75;;;12.50;1.00;;;;;;5032672;28;20425;-60
2022/12/25 09:45:25;;;;;;;75.88;48.60;;;12.50;1.00;;;;;;5029084;28;20072;-60
2022/12/25 09:47:55;;;;;;;78.53;48.88;;;12.60;1.00;;;;;;5018116;28;20056;-60
2022/12/25 09:50:27;;;;;;;78.72;48.95;;;12.60;1.00;;;;;;5024317;28;20030;-60
2022/12/25 09:53:04;;;;;;;78.30;48.10;;;12.50;1.00;;;;;;5033797;28;20042;-61
2022/12/25 09:55:32;;;;;;;78.93;49.35;;;12.60;1.00;;;;;;5032478;28;20337;-60
2022/12/25 09:58:01;;;;;;;80.82;51.42;;;12.60;1.00;;;;;;5033601;28;20110;-60
2022/12/25 10:00:41;;;;;;;77.45;48.88;;;12.60;1.00;;;;;;5033245;28;20586;-60
2022/12/25 10:03:14;;;;;;;79.07;48.80;;;12.70;1.00;;;;;;5033270;28;20120;-61
2022/12/25 10:05:45;;;;;;;76.30;49.25;;;12.70;1.00;;;;;;5033531;28;20021;-60
2022/12/25 10:08:39;;;;;;;79.82;49.95;;;12.70;1.00;;;;;;5033170;28;20030;-61
2022/12/25 10:11:36;;;;;;;77.32;46.85;;;12.70;1.00;;;;;;5031606;28;20024;-60
2022/12/25 10:14:28;;;;;;;71.60;46.03;;;12.70;1.00;;;;;;5033601;28;20056;-60
2022/12/25 10:17:17;;;;;;;79.70;49.72;;;12.80;1.00;;;;;;5032136;28;20172;-60
2022/12/25 10:20:07;;;;;;;77.97;47.90;;;12.90;1.00;;;;;;5032145;28;20448;-60
2022/12/25 10:22:39;;;;;;;77.78;48.85;;;12.90;1.00;;;;;;5027041;28;20037;-60
2022/12/25 10:25:11;;;;;;;80.03;49.70;;;12.90;1.00;;;;;;5035465;28;20017;-60
2022/12/25 10:27:39;;;;;;;81.32;52.00;;;13.00;1.00;;;;;;5026945;28;20088;-61
2022/12/25 10:30:17;;;;;;;78.10;51.70;;;12.80;1.00;;;;;;5026554;28;20104;-61
2022/12/25 10:32:44;;;;;;;77.00;49.95;;;12.80;1.00;;;;;;5022910;28;20032;-61
2022/12/25 10:35:12;;;;;;;82.25;50.03;;;12.80;1.00;;;;;;5032058;28;20061;-61
2022/12/25 10:37:40;;;;;;;75.13;47.88;;;12.80;1.00;;;;;;5021746;28;20335;-61
2022/12/25 10:40:21;;;;;;;76.07;48.60;;;12.80;1.00;;;;;;5023155;28;20108;-61
2022/12/25 10:42:55;;;;;;;84.90;51.90;;;12.80;1.00;;;;;;5024427;28;20042;-61
2022/12/25 10:45:26;;;;;;;82.80;51.00;;;12.80;1.00;;;;;;5027993;28;20040;-61
2022/12/25 10:48:03;;;;;;;79.28;50.03;;;12.80;1.00;;;;;;5022361;28;20280;-61
2022/12/25 10:50:29;;;;;;;76.90;48.22;;;12.80;1.00;;;;;;5030757;28;20025;-60
2022/12/25 10:53:08;;;;;;;81.72;49.15;;;12.90;1.00;;;;;;5031537;28;20835;-61
2022/12/25 10:55:38;;;;;;;81.05;48.63;;;12.80;1.00;;;;;;5029062;28;20463;-61
2022/12/25 10:58:05;;;;;;;74.63;50.08;;;12.90;1.00;;;;;;5020113;28;20041;-61
2022/12/25 11:00:31;;;;;;;74.68;49.00;;;12.90;1.00;;;;;;5029937;28;20041;-61
2022/12/25 11:02:57;;;;;;;75.45;47.35;;;12.90;1.00;;;;;;5029957;28;20351;-65
2022/12/25 11:05:34;;;;;;;76.53;48.45;;;12.90;1.00;;;;;;5031251;28;20352;-64
2022/12/25 11:08:02;;;;;;;74.43;48.97;;;12.90;1.00;;;;;;5031187;28;20066;-60
2022/12/25 11:10:37;;;;;;;83.55;53.25;;;12.80;1.00;;;;;;5041709;28;20100;-63
2022/12/25 11:13:06;;;;;;;79.95;51.75;;;12.80;1.00;;;;;;5031287;28;20052;-63
2022/12/25 11:15:42;;;;;;;85.43;53.53;;;12.90;1.00;;;;;;5026611;28;20026;-63
2022/12/25 11:18:47;;;;;;;82.50;49.70;;;13.00;1.00;;;;;;5024545;28;20151;-62
2022/12/25 11:21:26;;;;;;;76.00;47.33;;;13.00;1.00;;;;;;5025758;28;20017;-62
2022/12/25 11:24:00;;;;;;;73.18;47.58;;;13.10;1.00;;;;;;5030709;28;20029;-62
2022/12/25 11:26:28;;;;;;;74.65;48.60;;;12.90;1.00;;;;;;5043022;28;20056;-62
2022/12/25 11:28:55;;;;;;;73.70;46.58;;;13.00;1.00;;;;;;5030744;28;20157;-62
2022/12/25 11:31:31;;;;;;;76.10;48.53;;;13.00;1.00;;;;;;5031320;28;20058;-62
2022/12/25 11:34:06;;;;;;;75.70;50.15;;;13.00;1.00;;;;;;5031038;28;20467;-62
2022/12/25 11:36:46;;;;;;;69.75;44.72;;;13.00;1.00;;;;;;5027837;28;20040;-63
2022/12/25 11:39:27;;;;;;;81.05;50.85;;;13.00;1.00;;;;;;5031046;28;20048;-63
2022/12/25 11:42:10;;;;;;;82.03;51.88;;;13.00;1.00;;;;;;5020735;28;20037;-62
2022/12/25 11:44:39;;;;;;;76.50;48.90;;;13.00;1.00;;;;;;5024447;28;20029;-62
2022/12/25 11:47:21;;;;;;;77.45;49.33;;;13.10;1.00;;;;;;5029009;28;20500;-62
2022/12/25 11:49:59;;;;;;;74.78;50.20;;;13.20;1.00;;;;;;5029534;28;20069;-62
2022/12/25 11:52:29;;;;;;;76.45;50.13;;;13.20;1.00;;;;;;5017253;28;20028;-62
2022/12/25 11:55:12;;;;;;;78.50;48.33;;;13.20;1.00;;;;;;5030860;28;20154;-61
2022/12/25 11:57:40;;;;;;;78.63;50.95;;;13.10;1.00;;;;;;5029373;28;20037;-62
2022/12/25 12:00:09;;;;;;;81.35;51.28;;;13.20;1.00;;;;;;5024407;28;20029;-63
2022/12/25 12:02:34;;;;;;;80.40;50.78;;;13.30;1.00;;;;;;5032836;28;20044;-63
2022/12/25 12:05:24;;;;;;;76.18;50.70;;;13.30;1.00;;;;;;5040131;28;20029;-63
2022/12/25 12:07:59;;;;;;;82.72;53.20;;;13.40;1.00;;;;;;5030973;28;20084;-63
2022/12/25 12:11:15;;;;;;;76.20;51.03;;;13.30;1.00;;;;;;5034059;28;20026;-63
2022/12/25 12:14:05;;;;;;;78.72;50.80;;;13.30;1.00;;;;;;5030177;28;20506;-64
2022/12/25 12:16:31;;;;;;;81.72;51.47;;;13.10;1.00;;;;;;5025602;28;20033;-62
2022/12/25 12:18:57;;;;;;;79.93;51.78;;;13.00;1.00;;;;;;5033430;28;20084;-62
2022/12/25 12:21:29;;;;;;;77.93;49.83;;;13.20;1.00;;;;;;5033264;28;20029;-62
2022/12/25 12:27:21;;;;;;;83.22;52.40;;;13.10;1.00;;;;;;5022048;28;20152;-63
2022/12/25 12:29:51;;;;;;;81.63;51.53;;;13.20;1.00;;;;;;5031745;28;20038;-62
2022/12/25 12:32:34;;;;;;;86.82;52.03;;;13.20;1.00;;;;;;5031001;28;20029;-62
2022/12/25 12:35:17;;;;;;;78.97;52.00;;;13.20;1.00;;;;;;5032170;28;20136;-62
2022/12/25 12:37:45;;;;;;;82.38;52.25;;;13.20;1.00;;;;;;5034120;28;20140;-63
2022/12/25 12:40:39;;;;;;;82.63;53.35;;;13.10;1.00;;;;;;5031905;28;20550;-62
2022/12/25 12:43:21;;;;;;;78.22;51.95;;;13.10;1.00;;;;;;5027215;28;20046;-63
2022/12/25 12:45:55;;;;;;;81.28;52.83;;;13.20;1.00;;;;;;5023941;28;20423;-62
2022/12/25 12:48:28;;;;;;;79.68;51.63;;;13.20;1.00;;;;;;5033350;28;20032;-62
2022/12/25 12:51:05;;;;;;;86.53;51.97;;;13.20;1.00;;;;;;5028410;28;20030;-62
2022/12/25 12:53:32;;;;;;;83.68;53.25;;;12.90;1.00;;;;;;5021243;28;20021;-62
2022/12/25 12:56:11;;;;;;;81.75;53.28;;;13.00;1.00;;;;;;5027835;28;20065;-63
2022/12/25 12:59:02;;;;;;;82.75;52.78;;;13.00;1.00;;;;;;5020932;28;20040;-62
2022/12/25 13:01:50;;;;;;;84.80;52.75;;;12.90;1.00;;;;;;5033020;28;20037;-62
2022/12/25 13:04:39;;;;;;;88.50;54.15;;;13.00;1.00;;;;;;5034666;28;20595;-62
2022/12/25 13:07:22;;;;;;;82.55;52.47;;;13.00;1.00;;;;;;5031982;28;20079;-62
2022/12/25 13:10:26;;;;;;;85.75;53.35;;;13.10;1.00;;;;;;5034621;28;20052;-62
2022/12/25 13:13:10;;;;;;;86.82;55.45;;;13.10;1.00;;;;;;5033521;28;20048;-63
2022/12/25 13:15:37;;;;;;;82.43;52.03;;;13.20;1.00;;;;;;5033912;28;20119;-63
2022/12/25 13:18:06;;;;;;;84.35;53.70;;;13.30;1.00;;;;;;5034483;28;20029;-63
2022/12/25 13:20:40;;;;;;;79.22;53.67;;;13.20;1.00;;;;;;5032170;28;20033;-62
2022/12/25 13:23:14;;;;;;;83.38;49.70;;;13.30;1.00;;;;;;5033425;28;20030;-63
2022/12/25 13:25:39;;;;;;;77.10;52.17;;;13.30;1.00;;;;;;5036719;28;20045;-62
2022/12/25 13:28:13;;;;;;;86.63;53.35;;;13.30;1.00;;;;;;5037269;28;20096;-62
2022/12/25 13:30:39;;;;;;;79.68;50.30;;;13.40;1.00;;;;;;5031810;28;20438;-62
2022/12/25 13:33:04;;;;;;;79.97;54.97;;;13.30;1.00;;;;;;5033299;28;20025;-62
2022/12/25 13:35:30;;;;;;;83.22;53.40;;;13.30;1.00;;;;;;5019803;28;20475;-63
2022/12/25 13:37:55;;;;;;;88.15;54.53;;;13.30;1.00;;;;;;5032849;28;20045;-63
2022/12/25 13:40:26;;;;;;;82.75;52.35;;;13.20;1.00;;;;;;5029887;28;20116;-63
2022/12/25 13:43:00;;;;;;;79.75;52.55;;;13.10;1.00;;;;;;5032818;28;20041;-62
2022/12/25 13:45:28;;;;;;;86.00;53.10;;;13.10;1.00;;;;;;5024935;28;20052;-63
2022/12/25 13:47:54;;;;;;;85.85;53.75;;;13.10;1.00;;;;;;5032434;28;20373;-63
2022/12/25 13:50:29;;;;;;;86.43;55.92;;;13.20;1.00;;;;;;5026433;28;20029;-63
2022/12/25 13:52:57;;;;;;;85.53;52.95;;;13.10;1.00;;;;;;5032585;28;20041;-64
2022/12/25 13:55:25;;;;;;;83.30;52.45;;;13.00;1.00;;;;;;5024066;28;20034;-63
2022/12/25 13:58:00;;;;;;;84.40;54.33;;;13.10;1.00;;;;;;5032593;28;20072;-63
2022/12/25 14:00:39;;;;;;;82.30;51.10;;;13.10;1.00;;;;;;5022240;28;20037;-63
2022/12/25 14:03:08;;;;;;;79.45;52.42;;;13.20;1.00;;;;;;5032115;28;20038;-63
2022/12/25 14:05:36;;;;;;;86.50;53.85;;;13.20;1.00;;;;;;5021528;28;20030;-63
2022/12/25 14:08:13;;;;;;;82.63;53.13;;;13.20;1.00;;;;;;5032182;28;20423;-63
2022/12/25 14:10:40;;;;;;;87.28;53.67;;;13.20;1.00;;;;;;5029008;28;20087;-63
2022/12/25 14:13:09;;;;;;;83.55;54.70;;;13.10;1.00;;;;;;5032441;28;20125;-63
2022/12/25 14:15:38;;;;;;;87.75;54.22;;;13.20;1.00;;;;;;5020602;28;20427;-63
2022/12/25 14:18:04;;;;;;;88.60;55.20;;;13.10;1.00;;;;;;5031871;28;20018;-63
2022/12/25 14:20:38;;;;;;;85.88;56.63;;;13.10;1.00;;;;;;5023533;28;20030;-64
2022/12/25 14:23:05;;;;;;;84.13;53.13;;;13.00;1.00;;;;;;5031332;28;20022;-63
2022/12/25 14:25:40;;;;;;;87.03;56.38;;;13.00;1.00;;;;;;5036209;28;20069;-63
2022/12/25 14:28:16;;;;;;;87.70;55.25;;;13.00;1.00;;;;;;5037643;28;20420;-63
2022/12/25 14:30:42;;;;;;;88.82;56.83;;;13.00;1.00;;;;;;5031601;28;20095;-63
2022/12/25 14:33:20;;;;;;;83.18;52.92;;;13.00;1.00;;;;;;5031430;28;20468;-63
2022/12/25 14:35:47;;;;;;;79.72;51.20;;;13.00;1.00;;;;;;5019248;28;20048;-62
2022/12/25 14:38:24;;;;;;;81.93;52.80;;;13.00;1.00;;;;;;5018720;28;20036;-63
2022/12/25 14:41:14;;;;;;;83.05;52.05;;;13.10;1.00;;;;;;5026292;28;20080;-63
2022/12/25 14:43:51;;;;;;;81.78;54.17;;;13.10;1.00;;;;;;5025743;28;20091;-64
2022/12/25 14:46:25;;;;;;;84.90;53.50;;;13.20;1.00;;;;;;5019262;28;20434;-64
2022/12/25 14:49:06;;;;;;;84.75;52.40;;;13.10;1.00;;;;;;5030256;28;20057;-63
2022/12/25 14:51:37;;;;;;;87.75;55.38;;;13.10;1.00;;;;;;5031922;28;20463;-65
2022/12/25 14:54:13;;;;;;;83.55;52.63;;;12.90;1.00;;;;;;5030159;28;20406;-64
2022/12/25 14:56:45;;;;;;;88.00;57.50;;;13.00;1.00;;;;;;5031510;28;20037;-65
2022/12/25 14:59:18;;;;;;;84.13;55.47;;;13.10;1.00;;;;;;5031584;28;20074;-64
2022/12/25 15:01:50;;;;;;;84.45;55.00;;;13.00;1.00;;;;;;5020420;28;20044;-64
2022/12/25 15:04:17;;;;;;;89.93;58.22;;;13.10;1.00;;;;;;5032092;28;20021;-65
2022/12/25 15:07:23;;;;;;;86.30;55.92;;;13.10;1.00;;;;;;5030212;28;20041;-64
2022/12/25 15:09:48;;;;;;;88.65;55.90;;;13.10;1.00;;;;;;5028493;28;20044;-64
2022/12/25 15:12:14;;;;;;;87.63;56.65;;;13.10;1.00;;;;;;5021892;28;20438;-65
2022/12/25 15:14:40;;;;;;;82.65;53.40;;;13.00;1.00;;;;;;5028732;28;20359;-64